createdAt,value
2019-02-02T00:00:16.412Z,18.70
2019-02-02T00:05:17.774Z,16.37
2019-02-02T00:10:19.114Z,17.67
2019-02-02T00:15:20.431Z,15.33
2019-02-02T00:20:21.740Z,16.53
2019-02-02T00:25:23.043Z,14.87
2019-02-02T00:30:24.390Z,16.83
2019-02-02T00:35:25.705Z,13.70
2019-02-02T00:40:27.011Z,16.33
2019-02-02T00:45:28.371Z,32.63
2019-02-02T00:50:29.680Z,14.33
2019-02-02T00:55:30.988Z,14.27
2019-02-02T01:00:32.314Z,14.23
2019-02-02T01:05:33.588Z,14.73
2019-02-02T01:10:40.004Z,13.60
2019-02-02T01:15:41.497Z,13.70
2019-02-02T01:20:42.849Z,13.97
2019-02-02T01:25:44.151Z,13.17
2019-02-02T01:30:45.541Z,13.20
2019-02-02T01:35:46.893Z,13.90
2019-02-02T01:40:48.199Z,14.20
2019-02-02T01:45:49.520Z,11.27
2019-02-02T01:50:50.811Z,9.53
2019-02-02T01:55:52.131Z,12.20
2019-02-02T02:00:53.451Z,11.20
2019-02-02T02:05:54.744Z,11.07
2019-02-02T02:10:58.189Z,12.13
2019-02-02T02:15:59.215Z,12.33
2019-02-02T02:21:00.538Z,12.40
2019-02-02T02:26:01.837Z,12.37
2019-02-02T02:31:03.188Z,13.00
2019-02-02T02:36:04.484Z,12.43
2019-02-02T02:41:05.804Z,11.27
2019-02-02T02:46:07.162Z,11.10
2019-02-02T02:51:08.438Z,11.50
2019-02-02T02:56:09.780Z,11.63
2019-02-02T03:01:11.099Z,11.27
2019-02-02T03:06:12.595Z,10.77
2019-02-02T03:11:13.892Z,10.63
2019-02-02T03:16:15.209Z,9.93
2019-02-02T03:21:16.651Z,10.00
2019-02-02T03:26:18.034Z,9.13
2019-02-02T03:31:19.359Z,9.37
2019-02-02T03:36:20.625Z,10.27
2019-02-02T03:41:22.102Z,9.63
2019-02-02T03:46:23.410Z,9.00
2019-02-02T03:51:24.711Z,9.97
2019-02-02T03:56:26.057Z,7.30
2019-02-02T04:01:29.953Z,7.90
2019-02-02T04:06:30.491Z,7.60
2019-02-02T04:11:31.781Z,8.30
2019-02-02T04:16:33.088Z,8.00
2019-02-02T04:21:34.472Z,8.23
2019-02-02T04:26:35.747Z,8.10
2019-02-02T04:31:37.056Z,7.63
2019-02-02T04:36:38.365Z,8.63
2019-02-02T04:41:39.714Z,9.37
2019-02-02T04:46:41.026Z,8.20
2019-02-02T04:51:42.337Z,8.60
2019-02-02T04:56:43.671Z,8.10
2019-02-02T05:01:45.093Z,9.43
2019-02-02T05:06:46.411Z,7.47
2019-02-02T05:11:47.763Z,9.60
2019-02-02T05:16:49.068Z,9.13
2019-02-02T05:21:50.384Z,7.80
2019-02-02T05:26:51.721Z,8.80
2019-02-02T05:31:53.022Z,8.37
2019-02-02T05:36:54.336Z,8.30
2019-02-02T05:41:55.615Z,7.50
2019-02-02T05:46:56.966Z,7.97
2019-02-02T05:51:58.280Z,7.67
2019-02-02T05:56:59.562Z,8.17
2019-02-02T06:02:00.931Z,7.87
2019-02-02T06:07:02.251Z,9.13
2019-02-02T06:12:03.559Z,8.10
2019-02-02T06:17:04.890Z,8.87
2019-02-02T06:22:06.287Z,7.50
2019-02-02T06:27:07.620Z,8.53
2019-02-02T06:32:12.057Z,9.57
2019-02-02T06:37:11.999Z,9.50
2019-02-02T06:42:13.310Z,9.93
2019-02-02T06:47:14.628Z,10.20
2019-02-02T06:52:15.975Z,10.67
2019-02-02T06:57:17.282Z,9.93
2019-02-02T07:02:18.626Z,10.43
2019-02-02T07:07:19.936Z,8.37
2019-02-02T07:12:21.432Z,9.50
2019-02-02T07:17:22.731Z,9.67
2019-02-02T07:22:24.056Z,9.37
2019-02-02T07:27:30.062Z,10.80
2019-02-02T07:32:31.371Z,9.27
2019-02-02T07:37:32.668Z,9.10
2019-02-02T07:42:33.990Z,9.70
2019-02-02T07:47:35.315Z,8.97
2019-02-02T07:52:36.611Z,9.07
2019-02-02T07:57:37.910Z,9.70
2019-02-02T08:02:39.238Z,8.93
2019-02-02T08:07:40.506Z,9.33
2019-02-02T08:12:41.840Z,8.47
2019-02-02T08:17:43.160Z,8.40
2019-02-02T08:22:44.479Z,8.47
2019-02-02T08:27:45.799Z,8.43
2019-02-02T08:32:47.160Z,8.70
2019-02-02T08:37:48.486Z,7.47
2019-02-02T08:42:49.808Z,7.93
2019-02-02T08:47:51.072Z,8.40
2019-02-02T08:52:52.391Z,8.97
2019-02-02T08:57:53.731Z,9.13
2019-02-02T09:02:55.118Z,9.27
2019-02-02T09:07:56.477Z,9.27
2019-02-02T09:12:57.797Z,9.63
2019-02-02T09:17:59.171Z,8.40
2019-02-02T09:23:06.540Z,6.90
2019-02-02T09:28:03.567Z,8.33
2019-02-02T09:33:04.953Z,7.47
2019-02-02T09:38:06.269Z,8.17
2019-02-02T09:43:07.635Z,7.47
2019-02-02T09:48:08.933Z,8.30
2019-02-02T09:53:10.266Z,6.73
2019-02-02T09:58:11.574Z,6.93
2019-02-02T10:03:13.000Z,8.23
2019-02-02T10:08:14.334Z,7.23
2019-02-02T10:13:15.628Z,6.77
2019-02-02T10:18:17.112Z,8.00
2019-02-02T10:23:18.451Z,8.00
2019-02-02T10:28:19.803Z,7.97
2019-02-02T10:33:21.086Z,8.63
2019-02-02T10:38:22.468Z,8.60
2019-02-02T10:43:23.847Z,8.07
2019-02-02T10:48:25.163Z,9.17
2019-02-02T10:53:26.496Z,9.70
2019-02-02T10:58:27.814Z,9.37
2019-02-02T11:03:29.161Z,8.97
2019-02-02T11:08:30.505Z,8.70
2019-02-02T11:13:31.785Z,8.17
2019-02-02T11:18:33.220Z,8.40
2019-02-02T11:23:34.599Z,9.07
2019-02-02T11:28:35.953Z,9.37
2019-02-02T11:33:37.223Z,10.27
2019-02-02T11:38:38.542Z,10.53
2019-02-02T11:43:39.910Z,10.13
2019-02-02T11:48:41.183Z,16.90
2019-02-02T11:53:42.531Z,13.57
2019-02-02T11:58:43.806Z,19.23
2019-02-02T12:03:45.118Z,12.33
2019-02-02T12:08:49.267Z,14.83
2019-02-02T12:13:49.609Z,14.50
2019-02-02T12:18:50.982Z,16.07
2019-02-02T12:23:52.258Z,14.70
2019-02-02T12:28:53.608Z,13.90
2019-02-02T12:33:54.936Z,14.70
2019-02-02T12:38:56.339Z,14.67
2019-02-02T12:43:57.669Z,24.93
2019-02-02T12:48:58.978Z,16.70
2019-02-02T12:54:00.285Z,17.23
2019-02-02T12:59:01.645Z,14.97
2019-02-02T13:04:05.564Z,18.33
2019-02-02T13:09:06.982Z,28.33
2019-02-02T13:14:08.299Z,19.30
2019-02-02T13:19:09.572Z,11.23
2019-02-02T13:24:11.022Z,11.60
2019-02-02T13:29:12.384Z,26.17
2019-02-02T13:34:13.715Z,25.30
2019-02-02T13:39:14.988Z,25.60
2019-02-02T13:44:16.302Z,28.83
2019-02-02T13:49:17.615Z,30.03
2019-02-02T13:54:18.931Z,40.73
2019-02-02T13:59:20.236Z,38.97
2019-02-02T14:04:21.555Z,22.57
2019-02-02T14:09:22.864Z,28.73
2019-02-02T14:14:24.195Z,27.83
2019-02-02T14:19:25.557Z,35.17
2019-02-02T14:24:26.899Z,37.30
2019-02-02T14:29:28.227Z,42.63
2019-02-02T14:34:40.006Z,43.10
2019-02-02T14:39:32.627Z,53.93
2019-02-02T14:44:34.023Z,59.60
2019-02-02T14:49:35.353Z,60.63
2019-02-02T14:54:36.679Z,47.37
2019-02-02T14:59:37.987Z,46.47
2019-02-02T15:04:39.279Z,35.50
2019-02-02T15:09:40.613Z,30.40
2019-02-02T15:14:41.916Z,29.33
2019-02-02T15:19:43.228Z,71.90
2019-02-02T15:24:44.547Z,50.60
2019-02-02T15:29:45.888Z,34.67
2019-02-02T15:34:47.208Z,108.53
2019-02-02T15:39:48.528Z,76.33
2019-02-02T15:44:49.810Z,52.70
2019-02-02T15:49:51.123Z,41.53
2019-02-02T15:54:52.404Z,62.90
2019-02-02T15:59:53.735Z,107.20
2019-02-02T16:04:55.039Z,72.93
2019-02-02T16:09:56.486Z,66.07
2019-02-02T16:14:57.917Z,55.37
2019-02-02T16:19:59.238Z,59.17
2019-02-02T16:25:00.585Z,49.97
2019-02-02T16:30:03.920Z,45.93
2019-02-02T16:35:08.000Z,40.77
2019-02-02T16:40:12.824Z,36.27
2019-02-02T16:45:19.311Z,41.17
2019-02-02T16:50:20.831Z,44.87
2019-02-02T16:55:24.154Z,48.10
2019-02-02T17:00:32.142Z,73.53
2019-02-02T17:05:33.474Z,62.47
2019-02-02T17:10:35.586Z,54.97
2019-02-02T17:15:36.917Z,54.57
2019-02-02T17:20:40.144Z,41.77
2019-02-02T17:25:41.531Z,191.67
2019-02-02T17:30:42.856Z,65.23
2019-02-02T17:35:44.252Z,99.60
2019-02-02T17:40:45.547Z,76.53
2019-02-02T17:45:46.850Z,58.00
2019-02-02T17:50:48.395Z,120.33
2019-02-02T17:55:49.730Z,145.97
2019-02-02T18:00:52.942Z,117.53
2019-02-02T18:05:54.275Z,84.50
2019-02-02T18:10:55.592Z,132.07
2019-02-02T18:15:56.900Z,164.70
2019-02-02T18:20:58.232Z,126.53
2019-02-02T18:25:59.567Z,85.57
2019-02-02T18:31:00.884Z,89.40
2019-02-02T18:36:02.178Z,76.30
2019-02-02T18:41:03.512Z,65.37
2019-02-02T18:46:04.962Z,86.43
2019-02-02T18:51:06.299Z,80.40
2019-02-02T18:56:07.615Z,74.67
2019-02-02T19:01:08.920Z,59.63
2019-02-02T19:06:10.239Z,60.10
2019-02-02T19:11:11.556Z,165.57
2019-02-02T19:16:13.742Z,58.00
2019-02-02T19:21:15.045Z,62.47
2019-02-02T19:26:16.389Z,90.03
2019-02-02T19:31:17.752Z,82.77
2019-02-02T19:36:19.043Z,57.53
2019-02-02T19:41:20.365Z,126.53
2019-02-02T19:46:21.680Z,68.67
2019-02-02T19:51:23.169Z,53.37
2019-02-02T19:56:24.577Z,51.30
2019-02-02T20:01:25.855Z,53.93
2019-02-02T20:06:27.152Z,60.23
2019-02-02T21:04:01.592Z,152.90
2019-02-02T21:09:04.532Z,92.47
2019-02-02T21:14:05.809Z,68.63
2019-02-02T21:19:07.100Z,61.80
2019-02-02T21:24:08.383Z,63.83
2019-02-02T21:29:09.660Z,81.87
2019-02-02T21:34:10.945Z,288.17
2019-02-02T21:39:12.317Z,141.43
2019-02-02T21:44:13.643Z,115.70
2019-02-02T21:49:15.178Z,135.83
2019-02-02T21:54:16.495Z,88.90
2019-02-02T21:59:17.797Z,79.57
2019-02-02T22:04:19.067Z,66.10
2019-02-02T22:09:20.379Z,105.73
2019-02-02T22:14:22.227Z,85.80
2019-02-02T22:19:23.512Z,124.67
2019-02-02T22:24:24.833Z,105.33
2019-02-02T22:29:26.159Z,103.00
2019-02-02T22:34:27.551Z,113.43
2019-02-02T22:39:28.766Z,116.37
2019-02-02T22:44:30.117Z,127.77
2019-02-02T22:49:31.456Z,107.27
2019-02-02T22:54:32.899Z,91.57
2019-02-02T22:59:34.198Z,128.43
2019-02-02T23:04:39.320Z,106.47
2019-02-02T23:10:10.197Z,84.00
2019-02-02T23:15:27.235Z,75.60
2019-02-02T23:20:28.503Z,83.33
2019-02-02T23:25:29.823Z,66.57
2019-02-02T23:30:31.384Z,68.13
2019-02-02T23:35:32.676Z,63.97
2019-02-02T23:40:34.028Z,68.83
2019-02-02T23:45:35.351Z,83.10
2019-02-02T23:50:36.671Z,94.63
2019-02-02T23:55:38.225Z,94.07
